sensor_id;sensor_type;location;lat;lon;timestamp;P1;durP1;ratioP1;P2;durP2;ratioP2
9675;SDS011;4876;42.656;23.292;2023-04-16T00:01:00;3.03;;;2.13;;
9675;SDS011;4876;42.656;23.292;2023-04-16T00:03:27;7.37;;;2.50;;
9675;SDS011;4876;42.656;23.292;2023-04-16T00:05:54;3.93;;;2.30;;
9675;SDS011;4876;42.656;23.292;2023-04-16T00:08:22;6.80;;;2.70;;
9675;SDS011;4876;42.656;23.292;2023-04-16T00:10:49;3.20;;;2.17;;
9675;SDS011;4876;42.656;23.292;2023-04-16T00:13:16;3.73;;;2.40;;
9675;SDS011;4876;42.656;23.292;2023-04-16T00:15:43;7.03;;;2.80;;
9675;SDS011;4876;42.656;23.292;2023-04-16T00:18:10;4.07;;;2.30;;
9675;SDS011;4876;42.656;23.292;2023-04-16T00:20:37;8.77;;;2.70;;
9675;SDS011;4876;42.656;23.292;2023-04-16T00:23:04;4.57;;;2.47;;
9675;SDS011;4876;42.656;23.292;2023-04-16T00:25:32;5.70;;;2.50;;
9675;SDS011;4876;42.656;23.292;2023-04-16T00:27:59;13.10;;;2.57;;
9675;SDS011;4876;42.656;23.292;2023-04-16T00:30:25;3.93;;;2.57;;
9675;SDS011;4876;42.656;23.292;2023-04-16T00:32:52;3.63;;;2.80;;
9675;SDS011;4876;42.656;23.292;2023-04-16T00:35:19;3.40;;;2.60;;
9675;SDS011;4876;42.656;23.292;2023-04-16T00:37:46;6.13;;;3.00;;
9675;SDS011;4876;42.656;23.292;2023-04-16T00:40:12;3.97;;;2.93;;
9675;SDS011;4876;42.656;23.292;2023-04-16T00:42:40;7.43;;;2.93;;
9675;SDS011;4876;42.656;23.292;2023-04-16T00:45:08;5.47;;;2.80;;
9675;SDS011;4876;42.656;23.292;2023-04-16T00:47:36;5.17;;;3.50;;
9675;SDS011;4876;42.656;23.292;2023-04-16T00:50:03;5.73;;;3.40;;
9675;SDS011;4876;42.656;23.292;2023-04-16T00:52:31;9.53;;;4.10;;
9675;SDS011;4876;42.656;23.292;2023-04-16T00:54:58;10.43;;;4.17;;
9675;SDS011;4876;42.656;23.292;2023-04-16T00:57:26;6.90;;;3.10;;
9675;SDS011;4876;42.656;23.292;2023-04-16T00:59:54;3.83;;;3.07;;
9675;SDS011;4876;42.656;23.292;2023-04-16T01:02:21;5.50;;;3.13;;
9675;SDS011;4876;42.656;23.292;2023-04-16T01:04:48;5.73;;;2.90;;
9675;SDS011;4876;42.656;23.292;2023-04-16T01:07:15;5.73;;;3.00;;
9675;SDS011;4876;42.656;23.292;2023-04-16T01:09:42;7.07;;;3.43;;
9675;SDS011;4876;42.656;23.292;2023-04-16T01:12:09;6.20;;;3.70;;
9675;SDS011;4876;42.656;23.292;2023-04-16T01:14:36;14.63;;;3.63;;
9675;SDS011;4876;42.656;23.292;2023-04-16T01:17:04;7.70;;;3.60;;
9675;SDS011;4876;42.656;23.292;2023-04-16T01:19:31;10.30;;;4.17;;
9675;SDS011;4876;42.656;23.292;2023-04-16T01:22:01;6.13;;;3.50;;
9675;SDS011;4876;42.656;23.292;2023-04-16T01:24:28;9.17;;;3.77;;
9675;SDS011;4876;42.656;23.292;2023-04-16T01:26:56;5.53;;;3.93;;
9675;SDS011;4876;42.656;23.292;2023-04-16T01:29:23;8.10;;;3.80;;
9675;SDS011;4876;42.656;23.292;2023-04-16T01:31:49;6.87;;;4.00;;
9675;SDS011;4876;42.656;23.292;2023-04-16T01:34:16;8.13;;;3.80;;
9675;SDS011;4876;42.656;23.292;2023-04-16T01:36:43;7.13;;;3.50;;
9675;SDS011;4876;42.656;23.292;2023-04-16T01:39:11;5.30;;;3.23;;
9675;SDS011;4876;42.656;23.292;2023-04-16T01:41:40;6.90;;;2.63;;
9675;SDS011;4876;42.656;23.292;2023-04-16T01:44:07;6.83;;;3.17;;
9675;SDS011;4876;42.656;23.292;2023-04-16T01:46:34;8.57;;;3.57;;
9675;SDS011;4876;42.656;23.292;2023-04-16T01:49:01;5.07;;;2.80;;
9675;SDS011;4876;42.656;23.292;2023-04-16T01:51:28;5.33;;;2.90;;
9675;SDS011;4876;42.656;23.292;2023-04-16T01:53:56;9.27;;;3.27;;
9675;SDS011;4876;42.656;23.292;2023-04-16T01:56:24;7.07;;;3.00;;
9675;SDS011;4876;42.656;23.292;2023-04-16T01:58:51;7.33;;;3.00;;
9675;SDS011;4876;42.656;23.292;2023-04-16T02:01:18;6.30;;;2.80;;
9675;SDS011;4876;42.656;23.292;2023-04-16T02:03:44;3.57;;;2.60;;
9675;SDS011;4876;42.656;23.292;2023-04-16T02:06:11;4.90;;;2.63;;
9675;SDS011;4876;42.656;23.292;2023-04-16T02:08:38;4.17;;;2.57;;
9675;SDS011;4876;42.656;23.292;2023-04-16T02:11:05;3.33;;;2.30;;
9675;SDS011;4876;42.656;23.292;2023-04-16T02:13:34;9.10;;;2.80;;
9675;SDS011;4876;42.656;23.292;2023-04-16T02:16:00;5.37;;;2.57;;
9675;SDS011;4876;42.656;23.292;2023-04-16T02:18:27;4.23;;;2.90;;
9675;SDS011;4876;42.656;23.292;2023-04-16T02:20:56;5.17;;;2.87;;
9675;SDS011;4876;42.656;23.292;2023-04-16T02:23:23;8.30;;;2.90;;
9675;SDS011;4876;42.656;23.292;2023-04-16T02:25:50;4.73;;;2.47;;
9675;SDS011;4876;42.656;23.292;2023-04-16T02:28:17;7.13;;;2.83;;
9675;SDS011;4876;42.656;23.292;2023-04-16T02:30:45;6.67;;;2.20;;
9675;SDS011;4876;42.656;23.292;2023-04-16T02:33:12;4.90;;;2.13;;
9675;SDS011;4876;42.656;23.292;2023-04-16T02:35:39;5.37;;;2.60;;
9675;SDS011;4876;42.656;23.292;2023-04-16T02:38:06;6.90;;;2.60;;
9675;SDS011;4876;42.656;23.292;2023-04-16T02:40:33;4.60;;;2.47;;
9675;SDS011;4876;42.656;23.292;2023-04-16T02:43:00;5.37;;;2.63;;
9675;SDS011;4876;42.656;23.292;2023-04-16T02:45:27;7.47;;;3.73;;
9675;SDS011;4876;42.656;23.292;2023-04-16T02:47:56;4.87;;;3.10;;
9675;SDS011;4876;42.656;23.292;2023-04-16T02:50:23;4.47;;;3.10;;
9675;SDS011;4876;42.656;23.292;2023-04-16T02:52:50;10.90;;;3.57;;
9675;SDS011;4876;42.656;23.292;2023-04-16T02:55:17;6.93;;;3.43;;
9675;SDS011;4876;42.656;23.292;2023-04-16T02:57:44;5.00;;;2.97;;
9675;SDS011;4876;42.656;23.292;2023-04-16T03:00:11;5.60;;;2.80;;
9675;SDS011;4876;42.656;23.292;2023-04-16T03:02:38;6.47;;;3.20;;
9675;SDS011;4876;42.656;23.292;2023-04-16T03:05:08;5.77;;;3.03;;
9675;SDS011;4876;42.656;23.292;2023-04-16T03:07:36;7.73;;;3.57;;
9675;SDS011;4876;42.656;23.292;2023-04-16T03:10:05;5.53;;;3.03;;
9675;SDS011;4876;42.656;23.292;2023-04-16T03:12:33;8.07;;;3.27;;
9675;SDS011;4876;42.656;23.292;2023-04-16T03:15:00;4.70;;;2.83;;
9675;SDS011;4876;42.656;23.292;2023-04-16T03:17:27;7.23;;;3.30;;
9675;SDS011;4876;42.656;23.292;2023-04-16T03:19:54;7.03;;;3.07;;
9675;SDS011;4876;42.656;23.292;2023-04-16T03:22:22;6.70;;;3.20;;
9675;SDS011;4876;42.656;23.292;2023-04-16T03:24:49;7.57;;;3.20;;
9675;SDS011;4876;42.656;23.292;2023-04-16T03:27:16;7.87;;;3.03;;
9675;SDS011;4876;42.656;23.292;2023-04-16T03:29:43;7.10;;;3.03;;
9675;SDS011;4876;42.656;23.292;2023-04-16T03:32:09;11.57;;;3.70;;
9675;SDS011;4876;42.656;23.292;2023-04-16T03:34:36;7.70;;;4.10;;
9675;SDS011;4876;42.656;23.292;2023-04-16T03:37:03;6.47;;;3.33;;
9675;SDS011;4876;42.656;23.292;2023-04-16T03:39:32;5.67;;;3.67;;
9675;SDS011;4876;42.656;23.292;2023-04-16T03:41:59;12.10;;;3.60;;
9675;SDS011;4876;42.656;23.292;2023-04-16T03:44:26;6.30;;;3.87;;
9675;SDS011;4876;42.656;23.292;2023-04-16T03:46:53;8.17;;;3.33;;
9675;SDS011;4876;42.656;23.292;2023-04-16T03:49:19;7.97;;;4.30;;
9675;SDS011;4876;42.656;23.292;2023-04-16T03:51:46;6.13;;;3.73;;
9675;SDS011;4876;42.656;23.292;2023-04-16T03:54:13;7.93;;;4.20;;
9675;SDS011;4876;42.656;23.292;2023-04-16T03:56:41;7.87;;;4.20;;
9675;SDS011;4876;42.656;23.292;2023-04-16T03:59:08;6.00;;;3.80;;
9675;SDS011;4876;42.656;23.292;2023-04-16T04:01:35;12.03;;;3.90;;
9675;SDS011;4876;42.656;23.292;2023-04-16T04:04:02;12.17;;;3.77;;
9675;SDS011;4876;42.656;23.292;2023-04-16T04:06:29;7.87;;;4.07;;
9675;SDS011;4876;42.656;23.292;2023-04-16T04:08:57;6.00;;;3.30;;
9675;SDS011;4876;42.656;23.292;2023-04-16T04:11:24;6.37;;;3.43;;
9675;SDS011;4876;42.656;23.292;2023-04-16T04:13:52;5.90;;;3.57;;
9675;SDS011;4876;42.656;23.292;2023-04-16T04:16:19;5.87;;;3.37;;
9675;SDS011;4876;42.656;23.292;2023-04-16T04:18:45;9.83;;;3.40;;
9675;SDS011;4876;42.656;23.292;2023-04-16T04:21:12;8.63;;;3.67;;
9675;SDS011;4876;42.656;23.292;2023-04-16T04:23:39;10.63;;;3.93;;
9675;SDS011;4876;42.656;23.292;2023-04-16T04:26:07;6.70;;;3.43;;
9675;SDS011;4876;42.656;23.292;2023-04-16T04:28:34;7.07;;;3.50;;
9675;SDS011;4876;42.656;23.292;2023-04-16T04:31:02;7.50;;;3.73;;
9675;SDS011;4876;42.656;23.292;2023-04-16T04:33:29;7.77;;;3.80;;
9675;SDS011;4876;42.656;23.292;2023-04-16T04:35:56;8.43;;;3.63;;
9675;SDS011;4876;42.656;23.292;2023-04-16T04:38:23;9.47;;;3.60;;
9675;SDS011;4876;42.656;23.292;2023-04-16T04:40:50;7.27;;;3.57;;
9675;SDS011;4876;42.656;23.292;2023-04-16T04:43:17;6.37;;;4.07;;
9675;SDS011;4876;42.656;23.292;2023-04-16T04:45:44;6.93;;;3.70;;
9675;SDS011;4876;42.656;23.292;2023-04-16T04:48:12;6.87;;;3.40;;
9675;SDS011;4876;42.656;23.292;2023-04-16T04:50:39;12.10;;;4.33;;
9675;SDS011;4876;42.656;23.292;2023-04-16T04:53:06;8.07;;;3.83;;
9675;SDS011;4876;42.656;23.292;2023-04-16T04:55:35;13.97;;;5.07;;
9675;SDS011;4876;42.656;23.292;2023-04-16T04:58:02;10.87;;;4.30;;
9675;SDS011;4876;42.656;23.292;2023-04-16T05:00:30;9.43;;;4.00;;
9675;SDS011;4876;42.656;23.292;2023-04-16T05:02:57;12.27;;;4.17;;
9675;SDS011;4876;42.656;23.292;2023-04-16T05:05:25;9.87;;;4.03;;
9675;SDS011;4876;42.656;23.292;2023-04-16T05:07:52;9.67;;;4.93;;
9675;SDS011;4876;42.656;23.292;2023-04-16T05:10:18;8.23;;;4.23;;
9675;SDS011;4876;42.656;23.292;2023-04-16T05:12:45;7.00;;;4.33;;
9675;SDS011;4876;42.656;23.292;2023-04-16T05:15:13;7.13;;;3.90;;
9675;SDS011;4876;42.656;23.292;2023-04-16T05:17:40;10.53;;;4.30;;
9675;SDS011;4876;42.656;23.292;2023-04-16T05:20:07;7.23;;;4.33;;
9675;SDS011;4876;42.656;23.292;2023-04-16T05:22:36;9.13;;;4.67;;
9675;SDS011;4876;42.656;23.292;2023-04-16T05:25:03;9.70;;;4.57;;
9675;SDS011;4876;42.656;23.292;2023-04-16T05:27:30;9.60;;;4.70;;
9675;SDS011;4876;42.656;23.292;2023-04-16T05:29:57;11.33;;;5.10;;
9675;SDS011;4876;42.656;23.292;2023-04-16T05:32:24;9.17;;;5.00;;
9675;SDS011;4876;42.656;23.292;2023-04-16T05:34:52;8.87;;;4.03;;
9675;SDS011;4876;42.656;23.292;2023-04-16T05:37:18;10.17;;;4.47;;
9675;SDS011;4876;42.656;23.292;2023-04-16T05:39:49;8.97;;;4.47;;
9675;SDS011;4876;42.656;23.292;2023-04-16T05:42:16;11.73;;;4.23;;
9675;SDS011;4876;42.656;23.292;2023-04-16T05:44:43;9.93;;;4.40;;
9675;SDS011;4876;42.656;23.292;2023-04-16T05:47:10;9.20;;;4.43;;
9675;SDS011;4876;42.656;23.292;2023-04-16T05:49:36;8.77;;;5.13;;
9675;SDS011;4876;42.656;23.292;2023-04-16T05:52:03;8.57;;;5.63;;
9675;SDS011;4876;42.656;23.292;2023-04-16T05:54:31;11.03;;;5.13;;
9675;SDS011;4876;42.656;23.292;2023-04-16T05:56:59;10.13;;;5.37;;
9675;SDS011;4876;42.656;23.292;2023-04-16T05:59:26;9.80;;;5.73;;
9675;SDS011;4876;42.656;23.292;2023-04-16T06:01:53;12.57;;;5.87;;
9675;SDS011;4876;42.656;23.292;2023-04-16T06:04:20;12.57;;;5.00;;
9675;SDS011;4876;42.656;23.292;2023-04-16T06:06:47;11.97;;;5.40;;
9675;SDS011;4876;42.656;23.292;2023-04-16T06:09:13;8.80;;;5.40;;
9675;SDS011;4876;42.656;23.292;2023-04-16T06:11:40;11.67;;;5.47;;
9675;SDS011;4876;42.656;23.292;2023-04-16T06:14:08;11.27;;;6.27;;
9675;SDS011;4876;42.656;23.292;2023-04-16T06:16:36;9.27;;;5.60;;
9675;SDS011;4876;42.656;23.292;2023-04-16T06:19:02;7.97;;;5.63;;
9675;SDS011;4876;42.656;23.292;2023-04-16T06:21:29;13.37;;;5.40;;
9675;SDS011;4876;42.656;23.292;2023-04-16T06:23:57;11.83;;;5.83;;
9675;SDS011;4876;42.656;23.292;2023-04-16T06:26:24;12.33;;;6.20;;
9675;SDS011;4876;42.656;23.292;2023-04-16T06:28:51;10.43;;;5.43;;
9675;SDS011;4876;42.656;23.292;2023-04-16T06:31:19;11.00;;;5.27;;
9675;SDS011;4876;42.656;23.292;2023-04-16T06:33:46;10.47;;;5.80;;
9675;SDS011;4876;42.656;23.292;2023-04-16T06:36:12;15.47;;;6.17;;
9675;SDS011;4876;42.656;23.292;2023-04-16T06:38:40;13.30;;;6.00;;
9675;SDS011;4876;42.656;23.292;2023-04-16T06:41:07;10.87;;;5.97;;
9675;SDS011;4876;42.656;23.292;2023-04-16T06:43:34;10.53;;;6.33;;
9675;SDS011;4876;42.656;23.292;2023-04-16T06:46:01;18.77;;;6.40;;
9675;SDS011;4876;42.656;23.292;2023-04-16T06:48:29;11.53;;;5.93;;
9675;SDS011;4876;42.656;23.292;2023-04-16T06:50:56;14.83;;;6.63;;
9675;SDS011;4876;42.656;23.292;2023-04-16T06:53:23;16.50;;;6.73;;
9675;SDS011;4876;42.656;23.292;2023-04-16T06:55:50;16.57;;;8.00;;
9675;SDS011;4876;42.656;23.292;2023-04-16T06:58:17;14.40;;;7.50;;
9675;SDS011;4876;42.656;23.292;2023-04-16T07:00:43;10.70;;;7.13;;
9675;SDS011;4876;42.656;23.292;2023-04-16T07:03:10;14.40;;;8.07;;
9675;SDS011;4876;42.656;23.292;2023-04-16T07:05:38;12.00;;;7.63;;
9675;SDS011;4876;42.656;23.292;2023-04-16T07:08:05;15.83;;;7.77;;
9675;SDS011;4876;42.656;23.292;2023-04-16T07:10:32;12.90;;;7.47;;
9675;SDS011;4876;42.656;23.292;2023-04-16T07:12:59;12.00;;;6.90;;
9675;SDS011;4876;42.656;23.292;2023-04-16T07:15:26;11.73;;;6.80;;
9675;SDS011;4876;42.656;23.292;2023-04-16T07:17:53;13.17;;;7.10;;
9675;SDS011;4876;42.656;23.292;2023-04-16T07:20:20;15.27;;;7.70;;
9675;SDS011;4876;42.656;23.292;2023-04-16T07:22:48;9.93;;;6.07;;
9675;SDS011;4876;42.656;23.292;2023-04-16T07:25:15;16.03;;;7.40;;
9675;SDS011;4876;42.656;23.292;2023-04-16T07:27:42;12.97;;;6.30;;
9675;SDS011;4876;42.656;23.292;2023-04-16T07:30:08;14.87;;;6.90;;
9675;SDS011;4876;42.656;23.292;2023-04-16T07:32:36;9.80;;;5.80;;
9675;SDS011;4876;42.656;23.292;2023-04-16T07:35:03;12.33;;;6.77;;
9675;SDS011;4876;42.656;23.292;2023-04-16T07:37:30;9.23;;;5.57;;
9675;SDS011;4876;42.656;23.292;2023-04-16T07:39:58;8.97;;;6.43;;
9675;SDS011;4876;42.656;23.292;2023-04-16T07:42:25;12.03;;;6.53;;
9675;SDS011;4876;42.656;23.292;2023-04-16T07:44:53;9.67;;;5.80;;
9675;SDS011;4876;42.656;23.292;2023-04-16T07:47:20;9.50;;;5.70;;
9675;SDS011;4876;42.656;23.292;2023-04-16T07:49:50;8.37;;;5.00;;
9675;SDS011;4876;42.656;23.292;2023-04-16T07:52:17;7.93;;;4.90;;
9675;SDS011;4876;42.656;23.292;2023-04-16T07:54:44;10.90;;;4.80;;
9675;SDS011;4876;42.656;23.292;2023-04-16T07:57:12;11.67;;;5.20;;
9675;SDS011;4876;42.656;23.292;2023-04-16T07:59:40;11.63;;;5.57;;
9675;SDS011;4876;42.656;23.292;2023-04-16T08:02:07;9.30;;;5.00;;
9675;SDS011;4876;42.656;23.292;2023-04-16T08:04:38;8.67;;;5.07;;
9675;SDS011;4876;42.656;23.292;2023-04-16T08:07:06;8.87;;;4.93;;
9675;SDS011;4876;42.656;23.292;2023-04-16T08:09:32;10.70;;;4.53;;
9675;SDS011;4876;42.656;23.292;2023-04-16T08:12:00;11.20;;;5.60;;
9675;SDS011;4876;42.656;23.292;2023-04-16T08:14:28;7.73;;;4.80;;
9675;SDS011;4876;42.656;23.292;2023-04-16T08:16:55;8.00;;;5.10;;
9675;SDS011;4876;42.656;23.292;2023-04-16T08:19:22;9.00;;;5.17;;
9675;SDS011;4876;42.656;23.292;2023-04-16T08:21:49;8.03;;;5.17;;
9675;SDS011;4876;42.656;23.292;2023-04-16T08:24:15;10.07;;;5.17;;
9675;SDS011;4876;42.656;23.292;2023-04-16T08:26:42;9.47;;;4.23;;
9675;SDS011;4876;42.656;23.292;2023-04-16T08:29:09;6.30;;;4.57;;
9675;SDS011;4876;42.656;23.292;2023-04-16T08:31:37;6.73;;;4.40;;
9675;SDS011;4876;42.656;23.292;2023-04-16T08:34:04;7.73;;;4.40;;
9675;SDS011;4876;42.656;23.292;2023-04-16T08:36:31;7.00;;;4.00;;
9675;SDS011;4876;42.656;23.292;2023-04-16T08:38:57;8.37;;;4.53;;
9675;SDS011;4876;42.656;23.292;2023-04-16T08:41:24;9.87;;;4.37;;
9675;SDS011;4876;42.656;23.292;2023-04-16T08:43:53;10.50;;;4.50;;
9675;SDS011;4876;42.656;23.292;2023-04-16T08:46:23;7.90;;;4.87;;
9675;SDS011;4876;42.656;23.292;2023-04-16T08:48:53;7.20;;;4.10;;
9675;SDS011;4876;42.656;23.292;2023-04-16T08:51:21;6.00;;;3.80;;
9675;SDS011;4876;42.656;23.292;2023-04-16T08:53:50;7.07;;;3.73;;
9675;SDS011;4876;42.656;23.292;2023-04-16T08:56:19;8.43;;;3.97;;
9675;SDS011;4876;42.656;23.292;2023-04-16T08:58:46;6.40;;;4.07;;
9675;SDS011;4876;42.656;23.292;2023-04-16T09:01:15;6.53;;;3.60;;
9675;SDS011;4876;42.656;23.292;2023-04-16T09:03:43;4.37;;;2.70;;
9675;SDS011;4876;42.656;23.292;2023-04-16T09:06:14;7.67;;;3.37;;
9675;SDS011;4876;42.656;23.292;2023-04-16T09:08:42;9.70;;;3.70;;
9675;SDS011;4876;42.656;23.292;2023-04-16T09:11:09;6.77;;;2.90;;
9675;SDS011;4876;42.656;23.292;2023-04-16T09:13:37;5.03;;;3.03;;
9675;SDS011;4876;42.656;23.292;2023-04-16T09:16:04;8.97;;;3.10;;
9675;SDS011;4876;42.656;23.292;2023-04-16T09:18:32;7.57;;;2.80;;
9675;SDS011;4876;42.656;23.292;2023-04-16T09:20:59;4.87;;;2.90;;
9675;SDS011;4876;42.656;23.292;2023-04-16T09:23:28;8.17;;;2.90;;
9675;SDS011;4876;42.656;23.292;2023-04-16T09:25:56;3.50;;;2.57;;
9675;SDS011;4876;42.656;23.292;2023-04-16T09:28:37;6.37;;;2.73;;
9675;SDS011;4876;42.656;23.292;2023-04-16T09:31:07;4.97;;;2.87;;
9675;SDS011;4876;42.656;23.292;2023-04-16T09:33:38;6.17;;;2.93;;
9675;SDS011;4876;42.656;23.292;2023-04-16T09:36:05;6.83;;;2.67;;
9675;SDS011;4876;42.656;23.292;2023-04-16T09:38:45;5.70;;;2.17;;
9675;SDS011;4876;42.656;23.292;2023-04-16T09:41:13;5.00;;;2.07;;
9675;SDS011;4876;42.656;23.292;2023-04-16T09:43:41;3.70;;;1.97;;
9675;SDS011;4876;42.656;23.292;2023-04-16T09:46:19;6.03;;;2.10;;
9675;SDS011;4876;42.656;23.292;2023-04-16T09:48:46;6.37;;;2.33;;
9675;SDS011;4876;42.656;23.292;2023-04-16T09:51:13;6.17;;;2.30;;
9675;SDS011;4876;42.656;23.292;2023-04-16T09:53:40;5.30;;;2.40;;
9675;SDS011;4876;42.656;23.292;2023-04-16T09:56:08;7.57;;;2.80;;
9675;SDS011;4876;42.656;23.292;2023-04-16T09:58:35;5.93;;;2.70;;
9675;SDS011;4876;42.656;23.292;2023-04-16T10:01:04;8.13;;;2.90;;
9675;SDS011;4876;42.656;23.292;2023-04-16T10:03:34;6.17;;;2.47;;
9675;SDS011;4876;42.656;23.292;2023-04-16T10:06:06;6.20;;;2.97;;
9675;SDS011;4876;42.656;23.292;2023-04-16T10:08:35;6.50;;;2.40;;
9675;SDS011;4876;42.656;23.292;2023-04-16T10:11:01;8.77;;;2.73;;
9675;SDS011;4876;42.656;23.292;2023-04-16T10:13:30;6.67;;;2.70;;
9675;SDS011;4876;42.656;23.292;2023-04-16T10:15:57;6.73;;;2.97;;
9675;SDS011;4876;42.656;23.292;2023-04-16T10:18:25;6.40;;;3.10;;
9675;SDS011;4876;42.656;23.292;2023-04-16T10:20:52;8.37;;;2.83;;
9675;SDS011;4876;42.656;23.292;2023-04-16T10:23:20;4.07;;;2.83;;
9675;SDS011;4876;42.656;23.292;2023-04-16T10:25:47;11.30;;;2.90;;
9675;SDS011;4876;42.656;23.292;2023-04-16T10:28:14;5.80;;;2.57;;
9675;SDS011;4876;42.656;23.292;2023-04-16T10:30:44;9.13;;;3.30;;
9675;SDS011;4876;42.656;23.292;2023-04-16T10:33:18;8.07;;;2.70;;
9675;SDS011;4876;42.656;23.292;2023-04-16T10:35:46;6.47;;;2.80;;
9675;SDS011;4876;42.656;23.292;2023-04-16T10:38:19;4.20;;;2.67;;
9675;SDS011;4876;42.656;23.292;2023-04-16T10:40:47;5.03;;;3.00;;
9675;SDS011;4876;42.656;23.292;2023-04-16T10:43:16;6.27;;;2.80;;
9675;SDS011;4876;42.656;23.292;2023-04-16T10:45:46;7.57;;;3.20;;
9675;SDS011;4876;42.656;23.292;2023-04-16T10:48:13;6.53;;;2.70;;
9675;SDS011;4876;42.656;23.292;2023-04-16T10:50:41;6.73;;;2.80;;
9675;SDS011;4876;42.656;23.292;2023-04-16T10:53:16;8.23;;;2.83;;
9675;SDS011;4876;42.656;23.292;2023-04-16T10:55:54;6.43;;;3.10;;
9675;SDS011;4876;42.656;23.292;2023-04-16T10:58:36;8.90;;;3.17;;
9675;SDS011;4876;42.656;23.292;2023-04-16T11:01:06;7.33;;;2.90;;
9675;SDS011;4876;42.656;23.292;2023-04-16T11:03:40;7.10;;;3.00;;
9675;SDS011;4876;42.656;23.292;2023-04-16T11:06:11;3.87;;;2.60;;
9675;SDS011;4876;42.656;23.292;2023-04-16T11:08:39;5.50;;;2.87;;
9675;SDS011;4876;42.656;23.292;2023-04-16T11:11:08;6.87;;;3.47;;
9675;SDS011;4876;42.656;23.292;2023-04-16T11:13:35;6.50;;;2.80;;
9675;SDS011;4876;42.656;23.292;2023-04-16T11:16:02;10.40;;;3.00;;
9675;SDS011;4876;42.656;23.292;2023-04-16T11:18:31;3.80;;;2.50;;
9675;SDS011;4876;42.656;23.292;2023-04-16T11:20:58;5.57;;;3.00;;
9675;SDS011;4876;42.656;23.292;2023-04-16T11:23:24;8.37;;;2.50;;
9675;SDS011;4876;42.656;23.292;2023-04-16T11:25:51;10.07;;;3.00;;
9675;SDS011;4876;42.656;23.292;2023-04-16T11:28:31;7.93;;;3.33;;
9675;SDS011;4876;42.656;23.292;2023-04-16T11:30:58;7.03;;;2.73;;
9675;SDS011;4876;42.656;23.292;2023-04-16T11:33:25;10.63;;;3.00;;
9675;SDS011;4876;42.656;23.292;2023-04-16T11:35:56;5.77;;;2.83;;
9675;SDS011;4876;42.656;23.292;2023-04-16T11:38:31;6.33;;;3.10;;
9675;SDS011;4876;42.656;23.292;2023-04-16T11:41:00;5.13;;;3.00;;
9675;SDS011;4876;42.656;23.292;2023-04-16T11:43:27;6.47;;;2.70;;
9675;SDS011;4876;42.656;23.292;2023-04-16T11:45:55;6.97;;;2.63;;
9675;SDS011;4876;42.656;23.292;2023-04-16T11:48:22;5.20;;;2.90;;
9675;SDS011;4876;42.656;23.292;2023-04-16T11:50:54;5.50;;;2.80;;
9675;SDS011;4876;42.656;23.292;2023-04-16T11:53:23;5.43;;;2.97;;
9675;SDS011;4876;42.656;23.292;2023-04-16T11:55:50;5.47;;;2.87;;
9675;SDS011;4876;42.656;23.292;2023-04-16T11:58:17;4.90;;;2.67;;
9675;SDS011;4876;42.656;23.292;2023-04-16T12:00:46;7.93;;;3.00;;
9675;SDS011;4876;42.656;23.292;2023-04-16T12:03:13;5.50;;;3.10;;
9675;SDS011;4876;42.656;23.292;2023-04-16T12:05:40;8.23;;;2.70;;
9675;SDS011;4876;42.656;23.292;2023-04-16T12:08:07;8.17;;;2.80;;
9675;SDS011;4876;42.656;23.292;2023-04-16T12:10:51;6.80;;;2.87;;
9675;SDS011;4876;42.656;23.292;2023-04-16T12:13:18;4.97;;;2.70;;
9675;SDS011;4876;42.656;23.292;2023-04-16T12:15:46;7.33;;;2.70;;
9675;SDS011;4876;42.656;23.292;2023-04-16T12:18:14;5.27;;;2.67;;
9675;SDS011;4876;42.656;23.292;2023-04-16T12:20:41;7.47;;;2.80;;
9675;SDS011;4876;42.656;23.292;2023-04-16T12:23:09;8.53;;;2.70;;
9675;SDS011;4876;42.656;23.292;2023-04-16T12:25:41;6.77;;;3.30;;
9675;SDS011;4876;42.656;23.292;2023-04-16T12:28:08;5.60;;;2.60;;
9675;SDS011;4876;42.656;23.292;2023-04-16T12:30:47;6.30;;;2.60;;
9675;SDS011;4876;42.656;23.292;2023-04-16T12:33:16;6.67;;;2.57;;
9675;SDS011;4876;42.656;23.292;2023-04-16T12:35:43;4.07;;;2.50;;
9675;SDS011;4876;42.656;23.292;2023-04-16T12:38:10;6.57;;;2.70;;
9675;SDS011;4876;42.656;23.292;2023-04-16T12:40:40;6.10;;;2.53;;
9675;SDS011;4876;42.656;23.292;2023-04-16T12:43:07;6.63;;;2.40;;
9675;SDS011;4876;42.656;23.292;2023-04-16T12:45:34;5.53;;;2.70;;
9675;SDS011;4876;42.656;23.292;2023-04-16T12:48:01;6.40;;;2.43;;
9675;SDS011;4876;42.656;23.292;2023-04-16T12:50:28;5.00;;;2.60;;
9675;SDS011;4876;42.656;23.292;2023-04-16T12:52:55;9.23;;;2.57;;
9675;SDS011;4876;42.656;23.292;2023-04-16T12:55:23;4.30;;;2.70;;
9675;SDS011;4876;42.656;23.292;2023-04-16T12:57:51;7.87;;;2.63;;
9675;SDS011;4876;42.656;23.292;2023-04-16T13:00:18;7.93;;;2.67;;
9675;SDS011;4876;42.656;23.292;2023-04-16T13:02:45;7.73;;;2.90;;
9675;SDS011;4876;42.656;23.292;2023-04-16T13:05:12;4.43;;;2.53;;
9675;SDS011;4876;42.656;23.292;2023-04-16T13:07:40;7.60;;;3.10;;
9675;SDS011;4876;42.656;23.292;2023-04-16T13:10:07;5.43;;;2.50;;
9675;SDS011;4876;42.656;23.292;2023-04-16T13:12:35;10.53;;;2.90;;
9675;SDS011;4876;42.656;23.292;2023-04-16T13:15:03;4.87;;;2.20;;
9675;SDS011;4876;42.656;23.292;2023-04-16T13:17:30;4.00;;;2.17;;
9675;SDS011;4876;42.656;23.292;2023-04-16T13:19:57;5.67;;;2.43;;
9675;SDS011;4876;42.656;23.292;2023-04-16T13:22:24;9.00;;;2.70;;
9675;SDS011;4876;42.656;23.292;2023-04-16T13:24:51;5.17;;;2.13;;
9675;SDS011;4876;42.656;23.292;2023-04-16T13:27:17;4.43;;;2.70;;
9675;SDS011;4876;42.656;23.292;2023-04-16T13:29:44;6.53;;;2.30;;
9675;SDS011;4876;42.656;23.292;2023-04-16T13:32:12;4.20;;;2.20;;
9675;SDS011;4876;42.656;23.292;2023-04-16T13:34:39;6.97;;;2.53;;
9675;SDS011;4876;42.656;23.292;2023-04-16T13:37:06;4.57;;;2.33;;
9675;SDS011;4876;42.656;23.292;2023-04-16T13:39:33;5.37;;;2.13;;
9675;SDS011;4876;42.656;23.292;2023-04-16T13:41:59;3.93;;;1.80;;
9675;SDS011;4876;42.656;23.292;2023-04-16T13:44:26;13.80;;;2.53;;
9675;SDS011;4876;42.656;23.292;2023-04-16T13:46:53;13.57;;;2.40;;
9675;SDS011;4876;42.656;23.292;2023-04-16T13:49:22;8.97;;;2.50;;
9675;SDS011;4876;42.656;23.292;2023-04-16T13:51:48;13.00;;;3.00;;
9675;SDS011;4876;42.656;23.292;2023-04-16T13:54:15;7.80;;;2.20;;
9675;SDS011;4876;42.656;23.292;2023-04-16T13:56:42;5.70;;;4.00;;
9675;SDS011;4876;42.656;23.292;2023-04-16T13:59:09;5.47;;;3.03;;
9675;SDS011;4876;42.656;23.292;2023-04-16T14:01:36;4.90;;;2.20;;
9675;SDS011;4876;42.656;23.292;2023-04-16T14:04:03;5.67;;;2.30;;
9675;SDS011;4876;42.656;23.292;2023-04-16T14:06:31;4.17;;;2.13;;
9675;SDS011;4876;42.656;23.292;2023-04-16T14:08:58;3.30;;;2.30;;
9675;SDS011;4876;42.656;23.292;2023-04-16T14:11:25;6.20;;;2.57;;
9675;SDS011;4876;42.656;23.292;2023-04-16T14:13:52;7.17;;;2.40;;
9675;SDS011;4876;42.656;23.292;2023-04-16T14:16:19;6.20;;;2.37;;
9675;SDS011;4876;42.656;23.292;2023-04-16T14:18:47;3.93;;;2.03;;
9675;SDS011;4876;42.656;23.292;2023-04-16T14:21:15;2.77;;;1.90;;
9675;SDS011;4876;42.656;23.292;2023-04-16T14:23:44;5.47;;;2.60;;
9675;SDS011;4876;42.656;23.292;2023-04-16T14:26:10;6.83;;;2.47;;
9675;SDS011;4876;42.656;23.292;2023-04-16T14:28:37;3.83;;;2.50;;
9675;SDS011;4876;42.656;23.292;2023-04-16T14:31:05;6.53;;;2.80;;
9675;SDS011;4876;42.656;23.292;2023-04-16T14:33:31;4.67;;;3.10;;
9675;SDS011;4876;42.656;23.292;2023-04-16T14:35:58;3.53;;;2.23;;
9675;SDS011;4876;42.656;23.292;2023-04-16T14:38:25;6.07;;;2.40;;
9675;SDS011;4876;42.656;23.292;2023-04-16T14:40:53;8.40;;;2.87;;
9675;SDS011;4876;42.656;23.292;2023-04-16T14:43:20;8.63;;;2.67;;
9675;SDS011;4876;42.656;23.292;2023-04-16T14:45:47;3.07;;;2.17;;
9675;SDS011;4876;42.656;23.292;2023-04-16T14:48:14;6.03;;;2.80;;
9675;SDS011;4876;42.656;23.292;2023-04-16T14:50:40;5.03;;;2.40;;
9675;SDS011;4876;42.656;23.292;2023-04-16T14:53:08;6.20;;;2.43;;
9675;SDS011;4876;42.656;23.292;2023-04-16T14:55:36;8.40;;;3.17;;
9675;SDS011;4876;42.656;23.292;2023-04-16T14:58:04;7.87;;;3.00;;
9675;SDS011;4876;42.656;23.292;2023-04-16T15:00:32;10.57;;;3.30;;